»·PEaware :: N326MC KAMA-KASE

N326MC :: KAMA-KASE

FLIGHT INFORMATION

Flight Status: Arrived
Operator: Privately registered:
United States
More flights under this callsign
Pilot: Anonymous 5456 (5456)
Aircraft: BOEING 737-200
(B732)
More flights by this aircraft type
Origin: KAMA Amarillo Intl
United States
Destination: KASE Aspen-Pitkin Co/Sardy
United States
More flights between these airports :: More routes between these airports
Route: PNH V81 PUB DBL
File this flight plan on PilotEdge
Remarks:
Altitude:
(Current/Filed)
30,000ft
Speed:
(Current/Filed)
480kts
Departed: 13-Jan-18 02:25 PM
Arrived: 13-Jan-18 03:30 PM
Distance/Time
Traveled:
344nm/1:05
Distance/Time
To Go:
Arrived

Flight Plot

Page will automatically refresh every two minutes.

Flight plan parsing failed; only flown route is shown


Map Options




Map Legend


Flown Route
Filed Route
Departure Airport
Arrival Airport
Navaid (VOR, NDB)
Fix

Horizontal Profiles

Position Reports

Time Latitude Longitude Heading Altitude Ground
Speed
13-Jan-18 14:07 35.218305 -101.708494 225 3615ft 0kts
13-Jan-18 14:08 35.218305 -101.708494 225 3615ft 0kts
13-Jan-18 14:09 35.218305 -101.708494 225 3615ft 0kts
13-Jan-18 14:10 35.218305 -101.708494 225 3615ft 0kts
13-Jan-18 14:11 35.218305 -101.708494 225 3615ft 0kts
13-Jan-18 14:12 35.218305 -101.708494 225 3615ft 0kts
13-Jan-18 14:13 35.218305 -101.708494 225 3615ft 0kts
13-Jan-18 14:14 35.218305 -101.708494 225 3615ft 0kts
13-Jan-18 14:15 35.218305 -101.708494 225 3615ft 0kts
13-Jan-18 14:16 35.218305 -101.708494 225 3615ft 0kts
13-Jan-18 14:17 35.218305 -101.708494 225 3615ft 0kts
13-Jan-18 14:18 35.218305 -101.708494 225 3615ft 0kts
13-Jan-18 14:19 35.218305 -101.708494 225 3615ft 0kts
13-Jan-18 14:20 35.218305 -101.708494 225 3615ft 0kts
13-Jan-18 14:21 35.218305 -101.708494 225 3615ft 0kts
13-Jan-18 14:22 35.218305 -101.708494 225 3615ft 0kts
13-Jan-18 14:23 35.218305 -101.708494 225 3615ft 0kts
13-Jan-18 14:24 35.218305 -101.708494 225 3615ft 0kts
13-Jan-18 14:25 35.218226 -101.708635 244 3615ft 6kts
13-Jan-18 14:26 35.219150 -101.709776 45 3615ft 13kts
13-Jan-18 14:27 35.222037 -101.706142 46 3615ft 16kts
13-Jan-18 14:28 35.225704 -101.701514 44 3615ft 21kts
13-Jan-18 14:29 35.229382 -101.698635 314 3615ft 14kts
13-Jan-18 14:30 35.229963 -101.701382 224 3615ft 32kts
13-Jan-18 14:31 35.204573 -101.733537 225 4727ft 180kts
13-Jan-18 14:32 35.170515 -101.774530 224 7912ft 175kts
13-Jan-18 14:33 35.174750 -101.823250 342 10225ft 219kts
13-Jan-18 14:34 35.244992 -101.811098 1 11133ft 314kts
13-Jan-18 14:35 35.331905 -101.824763 347 13746ft 323kts
13-Jan-18 14:36 35.408553 -101.872230 319 16231ft 317kts
13-Jan-18 14:37 35.478337 -101.938247 318 18414ft 321kts
13-Jan-18 14:38 35.547702 -102.005830 318 20310ft 326kts
13-Jan-18 14:39 35.617986 -102.074958 318 21980ft 329kts
13-Jan-18 14:40 35.689353 -102.145445 318 23447ft 333kts
13-Jan-18 14:41 35.761393 -102.216800 318 24729ft 336kts
13-Jan-18 14:42 35.833374 -102.288273 319 25839ft 340kts
13-Jan-18 14:43 35.906573 -102.361123 319 26819ft 343kts
13-Jan-18 14:44 35.979402 -102.433836 320 28070ft 347kts
13-Jan-18 14:45 36.053792 -102.508245 320 29131ft 350kts
13-Jan-18 14:46 36.126923 -102.581096 321 30057ft 354kts
13-Jan-18 14:47 36.206595 -102.652556 326 30346ft 369kts
13-Jan-18 14:48 36.291132 -102.722986 323 30341ft 388kts
13-Jan-18 14:49 36.380157 -102.801935 323 30308ft 402kts
13-Jan-18 14:50 36.470880 -102.883220 323 30279ft 404kts
13-Jan-18 14:51 36.561735 -102.964958 323 30274ft 406kts
13-Jan-18 14:52 36.652222 -103.046614 323 30271ft 407kts
13-Jan-18 14:53 36.743840 -103.129537 323 30269ft 408kts
13-Jan-18 14:54 36.835438 -103.212686 323 30268ft 410kts
13-Jan-18 14:55 36.927604 -103.296569 323 30267ft 411kts
13-Jan-18 14:56 37.019578 -103.380513 323 30266ft 412kts
13-Jan-18 14:57 37.106825 -103.460397 322 30266ft 411kts
13-Jan-18 14:58 37.196211 -103.542486 322 30270ft 411kts
13-Jan-18 14:59 37.287802 -103.622665 326 30264ft 411kts
13-Jan-18 15:00 37.380859 -103.696411 325 30281ft 411kts
13-Jan-18 15:01 37.476908 -103.772485 325 30283ft 412kts
13-Jan-18 15:02 37.573797 -103.849451 325 30269ft 412kts
13-Jan-18 15:03 37.669866 -103.925995 325 30268ft 412kts
13-Jan-18 15:04 37.766325 -104.003088 325 30277ft 411kts
13-Jan-18 15:05 37.862539 -104.080228 325 30257ft 411kts
13-Jan-18 15:06 37.958152 -104.157122 325 30233ft 411kts
13-Jan-18 15:07 38.051597 -104.232524 325 30228ft 410kts
13-Jan-18 15:08 38.141462 -104.305247 325 30239ft 410kts
13-Jan-18 15:09 38.237367 -104.383100 325 30237ft 411kts
13-Jan-18 15:10 38.317236 -104.481453 305 30231ft 410kts
13-Jan-18 15:11 38.377896 -104.603551 304 30233ft 411kts
13-Jan-18 15:12 38.434373 -104.721052 303 30235ft 411kts
13-Jan-18 15:13 38.493047 -104.843896 303 30222ft 412kts
13-Jan-18 15:14 38.552363 -104.968648 303 30217ft 413kts
13-Jan-18 15:15 38.611768 -105.094055 303 30216ft 415kts
13-Jan-18 15:16 38.671291 -105.220205 303 30218ft 417kts
13-Jan-18 15:17 38.731005 -105.347273 303 30222ft 418kts
13-Jan-18 15:18 38.790677 -105.474754 303 30119ft 421kts
13-Jan-18 15:19 38.850818 -105.603700 302 28231ft 423kts
13-Jan-18 15:20 38.899011 -105.707457 301 27308ft 412kts
13-Jan-18 15:21 38.957442 -105.833667 301 26983ft 420kts
13-Jan-18 15:22 39.015165 -105.958855 300 24844ft 399kts
13-Jan-18 15:23 39.069863 -106.077978 300 22757ft 381kts
13-Jan-18 15:24 39.127377 -106.180964 297 20726ft 369kts
13-Jan-18 15:25 39.174942 -106.292764 298 18756ft 361kts
13-Jan-18 15:26 39.223323 -106.402515 298 17361ft 341kts
13-Jan-18 15:27 39.271148 -106.510828 298 17369ft 363kts
13-Jan-18 15:28 39.319502 -106.620662 298 16004ft 351kts
13-Jan-18 15:29 39.378341 -106.689276 337 14368ft 278kts
13-Jan-18 15:30 39.419904 -106.743472 259 14431ft 222kts
13-Jan-18 15:31 39.401960 -106.821928 256 14405ft 234kts
13-Jan-18 15:32 39.382979 -106.902173 256 13388ft 225kts
13-Jan-18 15:33 39.332046 -106.922041 162 13091ft 225kts
13-Jan-18 15:34 39.275002 -106.892714 163 9553ft 207kts
13-Jan-18 15:35 39.230378 -106.872307 162 7827ft 146kts
13-Jan-18 15:36 39.217124 -106.864789 326 7827ft 0kts
13-Jan-18 15:37 39.220031 -106.866237 333 7827ft 18kts
13-Jan-18 15:38 39.220809 -106.865988 253 7827ft 0kts

Navigation Log

Ident Type
Flight plan parsing failed, navigation log unavailable